Time;durP1;ratioP1;P1;durP2;ratioP2;P2;SDS_P1;SDS_P2;PMS_P1;PMS_P2;Temp;Humidity;BMP_temperature;BMP_pressure;BME280_temperature;BME280_humidity;BME280_pressure;Samples;Min_cycle;Max_cycle;Signal;HPM_P1;HPM_P2
2021/04/15 00:01:14;;;;;;;72.03;28.40;;;4.20;99.90;;;;;;5120291;28;20016;-68
2021/04/15 00:03:40;;;;;;;58.17;22.95;;;4.20;99.90;;;;;;5119788;28;20100;-69
2021/04/15 00:06:15;;;;;;;143.93;42.83;;;4.20;99.90;;;;;;5120276;28;20110;-69
2021/04/15 00:08:43;;;;;;;99.10;32.53;;;4.10;99.90;;;;;;5118479;28;20373;-72
2021/04/15 00:11:13;;;;;;;108.75;38.63;;;4.10;99.90;;;;;;5120890;28;20029;-68
2021/04/15 00:13:41;;;;;;;89.90;34.53;;;4.20;99.90;;;;;;5119292;28;20034;-73
2021/04/15 00:16:08;;;;;;;77.95;31.52;;;4.20;99.90;;;;;;5119518;28;20024;-68
2021/04/15 00:18:34;;;;;;;65.07;28.17;;;4.10;99.90;;;;;;5119726;28;20115;-73
2021/04/15 00:21:02;;;;;;;56.80;26.13;;;4.20;99.90;;;;;;5118409;28;20023;-71
2021/04/15 00:23:28;;;;;;;62.08;30.67;;;4.20;99.90;;;;;;5119372;28;20088;-68
2021/04/15 00:25:54;;;;;;;47.63;24.20;;;4.10;99.90;;;;;;5119892;28;20051;-70
2021/04/15 00:28:20;;;;;;;38.25;19.40;;;4.10;99.90;;;;;;5119747;28;20366;-70
2021/04/15 00:30:48;;;;;;;34.72;19.33;;;4.10;99.90;;;;;;5118412;28;20492;-69
2021/04/15 00:33:15;;;;;;;52.92;26.63;;;4.10;99.90;;;;;;5120305;28;20020;-72
2021/04/15 00:35:41;;;;;;;37.95;21.45;;;4.10;99.90;;;;;;5116628;28;20026;-70
2021/04/15 00:38:08;;;;;;;53.20;27.85;;;4.20;99.90;;;;;;5118994;28;20037;-73
2021/04/15 00:40:37;;;;;;;37.65;21.20;;;4.20;99.90;;;;;;5117903;28;20024;-71
2021/04/15 00:43:04;;;;;;;72.75;37.38;;;4.10;99.90;;;;;;5119361;28;20027;-67
2021/04/15 00:45:38;;;;;;;32.05;18.80;;;4.10;99.90;;;;;;5120524;28;20016;-70
2021/04/15 00:48:22;;;;;;;45.38;26.13;;;4.10;99.90;;;;;;5120330;28;20433;-73
2021/04/15 00:51:02;;;;;;;34.45;19.15;;;4.10;99.90;;;;;;5118861;28;20102;-69
2021/04/15 00:53:40;;;;;;;64.90;38.88;;;4.20;99.90;;;;;;5120599;28;20385;-69
2021/04/15 00:56:08;;;;;;;52.95;31.10;;;4.10;99.90;;;;;;5119765;28;20058;-69
2021/04/15 00:58:34;;;;;;;47.63;28.23;;;4.20;99.90;;;;;;5120129;28;20015;-68
2021/04/15 01:01:01;;;;;;;57.63;34.28;;;4.20;99.90;;;;;;5119577;28;20075;-69
2021/04/15 01:03:27;;;;;;;58.08;33.00;;;4.10;99.90;;;;;;5119501;28;20122;-71
2021/04/15 01:05:53;;;;;;;37.75;23.15;;;4.10;99.90;;;;;;5118140;28;20023;-68
2021/04/15 01:08:19;;;;;;;40.85;24.42;;;4.00;99.90;;;;;;5118943;28;20076;-69
2021/04/15 01:10:59;;;;;;;33.45;19.65;;;4.00;99.90;;;;;;5119652;28;20028;-73
2021/04/15 01:13:53;;;;;;;30.38;18.58;;;4.00;99.90;;;;;;5118545;28;20079;-70
2021/04/15 01:16:32;;;;;;;39.53;19.90;;;4.00;99.90;;;;;;5118195;28;20342;-68
2021/04/15 01:19:30;;;;;;;35.35;19.25;;;4.00;99.90;;;;;;5117803;28;20028;-69
2021/04/15 01:22:07;;;;;;;28.42;16.20;;;4.00;99.90;;;;;;5047119;28;20039;-69
2021/04/15 01:24:39;;;;;;;56.08;26.92;;;4.00;99.90;;;;;;5119361;28;20020;-68
2021/04/15 01:27:43;;;;;;;58.15;28.35;;;3.90;99.90;;;;;;5118165;28;20030;-73
2021/04/15 01:30:37;;;;;;;34.08;19.95;;;3.80;99.90;;;;;;5118827;28;20369;-69
2021/04/15 01:33:27;;;;;;;32.58;19.75;;;3.80;99.90;;;;;;5118779;28;20024;-68
2021/04/15 01:36:00;;;;;;;32.17;20.95;;;3.80;99.90;;;;;;5118760;28;20042;-70
2021/04/15 01:38:27;;;;;;;29.67;19.23;;;3.70;99.90;;;;;;5115035;28;20085;-70
2021/04/15 01:41:02;;;;;;;33.55;21.77;;;3.80;99.90;;;;;;5118355;28;20068;-69
2021/04/15 01:43:37;;;;;;;34.67;20.55;;;3.80;99.90;;;;;;5118156;28;20047;-70
2021/04/15 01:46:04;;;;;;;37.70;20.83;;;3.80;99.90;;;;;;5117044;28;20504;-69
2021/04/15 01:48:38;;;;;;;34.00;20.25;;;3.70;99.90;;;;;;5118132;28;20023;-69
2021/04/15 01:51:22;;;;;;;29.20;18.30;;;3.70;99.90;;;;;;5118249;28;20004;-68
2021/04/15 01:53:53;;;;;;;43.13;25.48;;;3.60;99.90;;;;;;5118230;28;20023;-73
2021/04/15 01:56:57;;;;;;;27.63;16.05;;;3.50;99.90;;;;;;5118694;28;20032;-70
2021/04/15 01:59:26;;;;;;;27.98;15.65;;;3.40;99.90;;;;;;5035736;28;20041;-70
2021/04/15 02:01:56;;;;;;;32.65;16.27;;;3.40;99.90;;;;;;5035309;28;20052;-69
2021/04/15 02:04:28;;;;;;;45.45;23.80;;;3.50;99.90;;;;;;5034590;28;20061;-73
2021/04/15 02:07:01;;;;;;;32.28;18.67;;;3.50;99.90;;;;;;5034675;28;20022;-69
2021/04/15 02:09:28;;;;;;;37.75;23.15;;;3.40;99.90;;;;;;5033768;28;20037;-69
2021/04/15 02:12:27;;;;;;;24.70;15.15;;;3.40;99.90;;;;;;5034033;28;20025;-73
2021/04/15 02:15:03;;;;;;;24.48;15.93;;;3.50;99.90;;;;;;5035736;28;20537;-69
2021/04/15 02:17:38;;;;;;;34.30;19.73;;;3.40;99.90;;;;;;5034677;28;20034;-69
2021/04/15 02:20:16;;;;;;;27.45;15.20;;;3.40;99.90;;;;;;5034950;28;20038;-68
2021/04/15 02:22:51;;;;;;;23.23;14.77;;;3.30;99.90;;;;;;5035067;28;20037;-73
2021/04/15 02:25:25;;;;;;;23.17;15.65;;;3.20;99.90;;;;;;5034396;28;20026;-68
2021/04/15 02:27:57;;;;;;;19.88;13.40;;;3.20;99.90;;;;;;5035137;28;20069;-70
2021/04/15 02:30:44;;;;;;;15.85;10.57;;;3.20;99.90;;;;;;5036260;28;20476;-73
2021/04/15 02:33:15;;;;;;;19.35;13.27;;;3.30;99.90;;;;;;5035794;28;20040;-69
2021/04/15 02:35:52;;;;;;;16.52;11.50;;;3.20;99.90;;;;;;5100585;28;20024;-73
2021/04/15 02:38:23;;;;;;;28.15;19.83;;;3.30;99.90;;;;;;5115466;28;20024;-69
2021/04/15 02:41:00;;;;;;;55.60;30.77;;;3.20;99.90;;;;;;5117916;28;20019;-69
2021/04/15 02:43:44;;;;;;;34.60;17.45;;;3.20;99.90;;;;;;5118050;28;20023;-69
2021/04/15 02:46:14;;;;;;;31.00;16.75;;;3.20;99.90;;;;;;5117742;28;20575;-71
2021/04/15 02:48:42;;;;;;;39.00;19.02;;;3.20;99.90;;;;;;5117261;28;20035;-73
2021/04/15 02:51:14;;;;;;;33.20;19.10;;;3.10;99.90;;;;;;5114331;28;20508;-69
2021/04/15 02:53:59;;;;;;;56.85;33.08;;;3.20;99.90;;;;;;5112473;28;20056;-68
2021/04/15 02:56:28;;;;;;;40.13;24.13;;;3.10;99.90;;;;;;5116435;28;20032;-74
2021/04/15 02:59:03;;;;;;;22.10;14.00;;;3.20;99.90;;;;;;5115833;28;20149;-70
2021/04/15 03:01:33;;;;;;;36.55;22.17;;;3.20;99.90;;;;;;5124325;27;20077;-73
2021/04/15 03:04:00;;;;;;;27.80;14.90;;;3.20;99.90;;;;;;5124387;28;20051;-70
2021/04/15 03:06:32;;;;;;;21.27;11.57;;;3.20;99.90;;;;;;5124964;27;20102;-69
2021/04/15 03:09:08;;;;;;;21.42;12.55;;;3.20;99.90;;;;;;5124290;28;20552;-73
2021/04/15 03:11:43;;;;;;;21.88;12.82;;;3.10;99.90;;;;;;5128020;27;20012;-73
2021/04/15 03:14:15;;;;;;;26.38;12.85;;;3.10;99.90;;;;;;5124644;27;20039;-70
2021/04/15 03:16:44;;;;;;;27.02;13.88;;;3.10;99.90;;;;;;5126881;28;20080;-69
2021/04/15 03:19:13;;;;;;;26.40;16.33;;;3.10;99.90;;;;;;5125521;28;20004;-74
2021/04/15 03:21:57;;;;;;;37.13;22.30;;;3.10;99.90;;;;;;5127336;27;20016;-68
2021/04/15 03:24:26;;;;;;;27.90;17.90;;;3.10;99.90;;;;;;5125983;28;20016;-67
2021/04/15 03:27:16;;;;;;;27.45;15.63;;;3.00;99.90;;;;;;5126574;27;20051;-72
2021/04/15 03:29:51;;;;;;;27.25;14.18;;;3.10;99.90;;;;;;5125966;27;20444;-69
2021/04/15 03:32:32;;;;;;;;;;;3.00;99.90;;;;;;5127698;28;20028;-73
2021/04/15 03:35:11;;;;;;;36.25;22.08;;;3.00;99.90;;;;;;5123436;27;19903;-68
2021/04/15 03:38:02;;;;;;;36.38;23.05;;;3.00;99.90;;;;;;5121549;28;20042;-73
2021/04/15 03:40:31;;;;;;;34.97;20.63;;;3.00;99.90;;;;;;5125755;27;20016;-72
2021/04/15 03:43:05;;;;;;;49.67;25.90;;;2.90;99.90;;;;;;5123600;28;20103;-68
2021/04/15 03:45:50;;;;;;;60.03;30.30;;;2.90;99.90;;;;;;5126726;27;20024;-68
2021/04/15 03:48:26;;;;;;;63.20;31.33;;;2.90;99.90;;;;;;5126302;28;20020;-69
2021/04/15 03:51:00;;;;;;;53.22;27.42;;;2.90;99.90;;;;;;5126031;27;20027;-72
2021/04/15 03:53:47;;;;;;;56.72;27.30;;;2.90;99.90;;;;;;5126339;27;20027;-69
2021/04/15 03:56:35;;;;;;;42.83;20.77;;;2.90;99.90;;;;;;5125494;27;20132;-71
2021/04/15 03:59:17;;;;;;;45.53;21.60;;;2.90;99.90;;;;;;5127264;27;20020;-69
2021/04/15 04:01:54;;;;;;;37.97;19.98;;;2.90;99.90;;;;;;5124262;27;20114;-73
2021/04/15 04:04:41;;;;;;;49.75;24.30;;;2.90;99.90;;;;;;5123441;27;20113;-73
2021/04/15 04:07:17;;;;;;;46.35;24.00;;;2.90;99.90;;;;;;5125120;27;20016;-73
2021/04/15 04:09:51;;;;;;;35.22;18.05;;;3.00;99.90;;;;;;5124047;27;20045;-73
2021/04/15 04:12:45;;;;;;;34.80;18.10;;;2.90;99.90;;;;;;5121446;27;20024;-70
2021/04/15 04:15:14;;;;;;;33.30;19.27;;;2.90;99.90;;;;;;5091949;28;20130;-70
2021/04/15 04:18:03;;;;;;;27.65;17.45;;;3.00;99.90;;;;;;5121905;28;20031;-70
2021/04/15 04:20:31;;;;;;;22.48;13.90;;;2.90;99.90;;;;;;5121023;28;20022;-71
2021/04/15 04:23:08;;;;;;;22.98;14.98;;;3.00;99.90;;;;;;5120311;28;20519;-73
2021/04/15 04:26:02;;;;;;;19.85;13.15;;;3.00;99.90;;;;;;5122702;28;20053;-73
2021/04/15 04:28:43;;;;;;;20.27;12.88;;;3.00;99.90;;;;;;5121863;28;20030;-73
2021/04/15 04:31:27;;;;;;;24.15;15.90;;;3.00;99.90;;;;;;5122889;28;20008;-72
2021/04/15 04:33:56;;;;;;;18.90;12.95;;;3.10;99.90;;;;;;5123197;28;20026;-73
2021/04/15 04:36:25;;;;;;;28.92;17.13;;;3.10;99.90;;;;;;5121750;28;20019;-68
2021/04/15 04:38:57;;;;;;;32.13;17.48;;;3.10;99.90;;;;;;5122085;28;20048;-69
2021/04/15 04:41:39;;;;;;;34.03;18.98;;;3.10;99.90;;;;;;5120170;28;20041;-74
2021/04/15 04:44:14;;;;;;;29.17;17.45;;;3.10;99.90;;;;;;5122678;28;20024;-73
2021/04/15 04:46:51;;;;;;;;;;;3.20;99.90;;;;;;5122811;28;20023;-72
2021/04/15 04:49:28;;;;;;;24.77;15.18;;;3.20;99.90;;;;;;5120330;28;19903;-73
2021/04/15 04:51:59;;;;;;;23.73;14.02;;;3.30;99.90;;;;;;5122338;28;20041;-73
2021/04/15 04:54:25;;;;;;;24.52;14.80;;;3.30;99.90;;;;;;5121116;28;20060;-72
2021/04/15 04:57:13;;;;;;;19.77;12.27;;;3.30;99.90;;;;;;5122332;28;20122;-67
2021/04/15 04:59:45;;;;;;;27.15;16.17;;;3.30;99.90;;;;;;5121939;27;20024;-69
2021/04/15 05:02:15;;;;;;;46.30;25.17;;;3.40;99.90;;;;;;5122271;28;20027;-73
2021/04/15 05:04:45;;;;;;;62.30;31.80;;;3.40;99.90;;;;;;5120278;28;20048;-69
2021/04/15 05:07:22;;;;;;;56.85;25.90;;;3.40;99.90;;;;;;5121302;28;20389;-69
2021/04/15 05:09:50;;;;;;;38.80;22.02;;;3.50;99.90;;;;;;5119499;28;20050;-67
2021/04/15 05:12:30;;;;;;;36.05;20.40;;;3.40;99.90;;;;;;5121390;28;20031;-69
2021/04/15 05:14:57;;;;;;;24.90;16.05;;;3.60;99.90;;;;;;5120333;28;20059;-72
2021/04/15 05:17:26;;;;;;;31.77;18.55;;;3.60;99.90;;;;;;5121547;28;20056;-73
2021/04/15 05:19:54;;;;;;;22.42;13.27;;;3.70;99.90;;;;;;5121004;28;20038;-72
2021/04/15 05:22:51;;;;;;;33.47;19.17;;;3.70;99.90;;;;;;5120381;28;20020;-73
2021/04/15 05:25:25;;;;;;;21.83;12.70;;;3.80;99.90;;;;;;5117203;28;20024;-70
2021/04/15 05:27:52;;;;;;;26.83;15.95;;;3.80;99.90;;;;;;5120816;28;20012;-73
2021/04/15 05:30:33;;;;;;;21.50;12.55;;;4.00;99.90;;;;;;5120376;28;20016;-73
2021/04/15 05:33:03;;;;;;;28.27;15.15;;;4.00;99.90;;;;;;5121133;28;20020;-69
2021/04/15 05:35:45;;;;;;;21.38;13.55;;;4.10;99.90;;;;;;5120758;28;20070;-73
2021/04/15 05:38:13;;;;;;;23.73;14.55;;;4.20;99.90;;;;;;5120274;28;20469;-70
2021/04/15 05:40:39;;;;;;;21.92;13.73;;;4.30;99.90;;;;;;5120037;28;20056;-69
2021/04/15 05:43:05;;;;;;;23.20;14.18;;;4.40;99.90;;;;;;5118004;28;20030;-68
2021/04/15 05:45:33;;;;;;;24.05;14.85;;;4.50;99.90;;;;;;5119217;28;20059;-68
2021/04/15 05:48:05;;;;;;;25.02;14.85;;;4.60;99.90;;;;;;5120029;28;20068;-72
2021/04/15 05:50:40;;;;;;;27.38;17.27;;;4.70;99.90;;;;;;5117344;28;20106;-73
2021/04/15 05:53:41;;;;;;;21.83;13.68;;;4.70;99.90;;;;;;5118802;28;20115;-70
2021/04/15 05:56:16;;;;;;;19.50;12.30;;;4.70;99.90;;;;;;5120788;27;20027;-71
2021/04/15 05:58:51;;;;;;;;;;;4.80;99.90;;;;;;5119886;28;20032;-76
2021/04/15 06:02:08;;;;;;;21.70;13.73;;;4.90;99.90;;;;;;5118042;28;19925;-69
2021/04/15 06:04:37;;;;;;;;;;;5.10;99.90;;;;;;5033506;28;20611;-69
2021/04/15 06:07:05;;;;;;;22.20;11.65;;;5.10;99.90;;;;;;5035572;28;19889;-72
2021/04/15 06:09:31;;;;;;;16.20;10.75;;;5.10;99.90;;;;;;5037571;28;20025;-70
2021/04/15 06:12:00;;;;;;;21.17;11.07;;;5.20;99.90;;;;;;5038407;28;20034;-69
2021/04/15 06:14:42;;;;;;;18.45;10.32;;;5.30;99.90;;;;;;5036889;28;20032;-70
2021/04/15 06:17:33;;;;;;;18.30;12.25;;;5.30;99.90;;;;;;5035005;28;20040;-70
2021/04/15 06:20:07;;;;;;;28.33;14.18;;;5.40;99.90;;;;;;5036940;28;20060;-69
2021/04/15 06:22:39;;;;;;;19.35;10.38;;;5.50;99.90;;;;;;5033239;28;20021;-69
2021/04/15 06:25:16;;;;;;;17.10;9.93;;;5.60;99.90;;;;;;5037589;28;20105;-69
2021/04/15 06:27:43;;;;;;;13.85;8.75;;;5.60;99.90;;;;;;5036922;28;20025;-71
2021/04/15 06:30:41;;;;;;;16.80;9.30;;;5.60;99.70;;;;;;5019769;28;20029;-72
2021/04/15 06:33:13;;;;;;;13.65;8.90;;;5.60;99.20;;;;;;5032531;28;20073;-70
2021/04/15 06:35:44;;;;;;;10.90;7.43;;;5.70;99.90;;;;;;5034959;28;20037;-70
2021/04/15 06:38:24;;;;;;;15.48;9.65;;;5.80;98.70;;;;;;5063852;28;20067;-70
2021/04/15 06:40:53;;;;;;;20.58;10.07;;;5.80;98.80;;;;;;5104557;28;20160;-69
2021/04/15 06:43:30;;;;;;;16.50;9.02;;;5.90;99.40;;;;;;5114906;28;20417;-68
2021/04/15 06:46:49;;;;;;;32.55;13.45;;;6.00;98.90;;;;;;5114209;28;20415;-68
2021/04/15 06:49:20;;;;;;;30.58;14.00;;;6.00;98.90;;;;;;5102899;28;20036;-71
2021/04/15 06:51:57;;;;;;;21.50;11.27;;;6.20;99.20;;;;;;5116649;28;20119;-70
2021/04/15 06:54:38;;;;;;;21.65;11.25;;;6.20;99.20;;;;;;5118116;28;20027;-67
2021/04/15 06:57:31;;;;;;;21.40;10.40;;;6.30;98.40;;;;;;5118219;28;20112;-69
2021/04/15 07:00:36;;;;;;;18.38;9.40;;;6.40;99.70;;;;;;5113373;28;20420;-69
2021/04/15 07:03:15;;;;;;;131.50;84.53;;;6.40;98.40;;;;;;5103519;28;20104;-69
2021/04/15 07:05:41;;;;;;;152.52;111.85;;;6.40;97.90;;;;;;5109207;28;20461;-70
2021/04/15 07:08:33;;;;;;;44.65;36.15;;;6.50;97.80;;;;;;5114582;28;20027;-69
2021/04/15 07:11:29;;;;;;;83.47;41.03;;;6.60;98.10;;;;;;5105553;28;20063;-70
2021/04/15 07:14:20;;;;;;;42.92;25.17;;;6.70;99.00;;;;;;5113621;28;20024;-69
2021/04/15 07:17:13;;;;;;;59.33;34.63;;;6.80;98.00;;;;;;5110871;28;20027;-69
2021/04/15 07:20:11;;;;;;;65.57;35.97;;;7.10;98.30;;;;;;5110769;28;20410;-69
2021/04/15 07:23:26;;;;;;;39.38;23.30;;;7.20;97.40;;;;;;5112784;28;20350;-68
2021/04/15 07:26:07;;;;;;;44.80;21.70;;;7.30;97.20;;;;;;5117543;28;20507;-71
2021/04/15 07:29:26;;;;;;;43.72;19.95;;;7.40;96.90;;;;;;5115834;28;20320;-71
2021/04/15 07:32:07;;;;;;;23.88;13.35;;;7.30;96.20;;;;;;5113923;28;20073;-69
2021/04/15 07:35:18;;;;;;;33.55;19.48;;;7.50;95.10;;;;;;5113532;28;20027;-67
2021/04/15 07:38:05;;;;;;;61.90;35.50;;;7.60;96.40;;;;;;5111509;28;20024;-68
2021/04/15 07:40:59;;;;;;;181.13;107.05;;;7.70;97.00;;;;;;5113112;28;20481;-69
2021/04/15 07:43:25;;;;;;;124.25;81.93;;;7.70;96.20;;;;;;5115973;28;20497;-67
2021/04/15 07:46:26;;;;;;;47.15;28.75;;;7.80;96.10;;;;;;5116661;28;20528;-71
2021/04/15 07:49:18;;;;;;;31.55;18.67;;;7.80;94.40;;;;;;5086674;28;20048;-71
2021/04/15 07:51:49;;;;;;;44.85;28.77;;;7.70;96.20;;;;;;5099363;28;20051;-69
2021/04/15 07:54:52;;;;;;;60.00;42.92;;;7.50;96.20;;;;;;5098243;28;20028;-68
2021/04/15 07:57:48;;;;;;;41.47;23.13;;;7.50;97.30;;;;;;5097374;28;20413;-70
2021/04/15 08:00:47;;;;;;;61.88;35.22;;;7.70;97.30;;;;;;5102026;28;20051;-70
2021/04/15 08:03:50;;;;;;;75.22;47.00;;;7.90;98.60;;;;;;5100041;28;20034;-68
2021/04/15 08:06:32;;;;;;;52.65;30.33;;;8.10;96.40;;;;;;5100575;28;20020;-69
2021/04/15 08:09:36;;;;;;;46.13;27.23;;;8.50;96.40;;;;;;5099808;28;20031;-72
2021/04/15 08:12:17;;;;;;;50.17;27.52;;;8.60;93.40;;;;;;5098238;28;20020;-70
2021/04/15 08:15:11;;;;;;;78.25;44.42;;;8.90;93.00;;;;;;5093769;28;20355;-68
2021/04/15 08:17:52;;;;;;;104.70;55.13;;;9.20;93.70;;;;;;5095164;28;20055;-68
2021/04/15 08:20:38;;;;;;;54.72;30.77;;;9.00;91.50;;;;;;5095273;28;20353;-68
2021/04/15 08:23:41;;;;;;;65.43;37.38;;;8.80;92.00;;;;;;5080803;28;20081;-74
2021/04/15 08:26:19;;;;;;;76.35;41.97;;;8.50;92.80;;;;;;5095461;28;20099;-69
2021/04/15 08:29:32;;;;;;;32.10;19.02;;;8.90;92.90;;;;;;5100105;28;20051;-72
2021/04/15 08:32:20;;;;;;;69.20;43.30;;;8.80;92.60;;;;;;5040082;28;20044;-72
2021/04/15 08:35:30;;;;;;;43.25;26.80;;;8.60;92.60;;;;;;5115466;28;20446;-71
2021/04/15 08:38:17;;;;;;;35.13;20.13;;;8.50;99.90;;;;;;5100144;28;20027;-70
2021/04/15 08:40:52;;;;;;;30.15;18.15;;;8.40;99.90;;;;;;5100299;28;20055;-68
2021/04/15 08:46:53;;;;;;;37.13;20.70;;;8.20;94.00;;;;;;5099051;28;20046;-70
2021/04/15 08:49:31;;;;;;;17.52;11.25;;;8.80;98.50;;;;;;5100224;28;20028;-70
2021/04/15 08:52:43;;;;;;;31.40;23.27;;;9.30;94.20;;;;;;5098161;28;20028;-71
2021/04/15 08:55:28;;;;;;;19.00;11.20;;;9.30;99.90;;;;;;5017366;28;20041;-71
2021/04/15 08:57:56;;;;;;;37.63;22.30;;;9.30;93.70;;;;;;5018063;28;20034;-69
2021/04/15 09:00:36;;;;;;;32.30;20.42;;;9.30;91.40;;;;;;5000950;28;20030;-71
2021/04/15 09:03:24;;;;;;;26.42;17.00;;;9.40;90.70;;;;;;5017750;28;20088;-71
2021/04/15 09:06:08;;;;;;;10.23;7.25;;;9.70;92.40;;;;;;5003006;28;20179;-70
2021/04/15 09:09:04;;;;;;;14.35;9.00;;;9.30;85.80;;;;;;5018480;28;20033;-71
2021/04/15 09:11:55;;;;;;;22.67;13.43;;;9.00;90.70;;;;;;5019411;28;20140;-72
2021/04/15 09:14:26;;;;;;;22.10;13.45;;;8.90;99.90;;;;;;5018282;28;20091;-72
2021/04/15 09:17:16;;;;;;;15.95;10.85;;;8.70;99.90;;;;;;5020051;28;20073;-69
2021/04/15 09:19:53;;;;;;;23.75;14.60;;;8.50;92.90;;;;;;5002482;28;20049;-72
2021/04/15 09:22:48;;;;;;;11.80;8.15;;;8.50;93.10;;;;;;5019865;28;20022;-72
2021/04/15 09:25:33;;;;;;;20.50;13.13;;;9.00;99.90;;;;;;5013083;28;20412;-72
2021/04/15 09:28:07;;;;;;;36.20;20.67;;;9.00;99.90;;;;;;5001984;28;20113;-72
2021/04/15 09:31:02;;;;;;;34.17;19.30;;;8.60;92.00;;;;;;5016883;28;20508;-73
2021/04/15 09:33:46;;;;;;;28.05;17.90;;;8.30;92.30;;;;;;5096700;28;20377;-73
2021/04/15 09:36:33;;;;;;;29.35;16.92;;;9.30;99.90;;;;;;5101058;28;20137;-73
2021/04/15 09:38:59;;;;;;;35.70;20.83;;;9.60;92.50;;;;;;5113788;28;20039;-71
2021/04/15 09:41:56;;;;;;;41.35;24.10;;;9.30;92.20;;;;;;5116180;28;20020;-71
2021/04/15 09:44:45;;;;;;;15.10;9.90;;;8.90;93.00;;;;;;5112933;28;20027;-70
2021/04/15 09:47:38;;;;;;;19.85;13.90;;;8.70;92.20;;;;;;5119172;28;20098;-70
2021/04/15 09:50:24;;;;;;;22.65;14.02;;;8.50;92.30;;;;;;5117162;28;20505;-72
2021/04/15 09:53:33;;;;;;;17.05;11.77;;;8.80;92.00;;;;;;5119221;28;20023;-70
2021/04/15 09:56:09;;;;;;;30.58;15.57;;;9.20;91.50;;;;;;5116030;28;20347;-71
2021/04/15 09:58:38;;;;;;;38.50;20.13;;;9.00;92.70;;;;;;5120829;28;20028;-70
2021/04/15 10:01:09;;;;;;;38.63;19.83;;;9.00;90.90;;;;;;5116718;28;20119;-73
2021/04/15 10:03:56;;;;;;;16.58;10.77;;;9.00;91.80;;;;;;5117682;28;20105;-70
2021/04/15 10:06:28;;;;;;;25.02;15.25;;;9.00;98.90;;;;;;5118711;28;20004;-71
2021/04/15 10:08:54;;;;;;;18.25;11.80;;;9.30;92.40;;;;;;5118314;28;20046;-70
2021/04/15 10:11:35;;;;;;;25.25;14.98;;;9.70;91.40;;;;;;5118864;28;20020;-74
2021/04/15 10:14:40;;;;;;;17.70;9.57;;;9.70;91.20;;;;;;5118592;28;20049;-70
2021/04/15 10:17:19;;;;;;;31.45;20.00;;;9.70;90.20;;;;;;5118234;28;20043;-78
2021/04/15 10:20:07;;;;;;;50.33;29.15;;;9.50;87.50;;;;;;5118897;28;20039;-72
2021/04/15 10:22:36;;;;;;;81.40;40.33;;;9.30;90.20;;;;;;5119155;28;20051;-69
2021/04/15 10:25:10;;;;;;;84.63;41.03;;;9.00;90.00;;;;;;5117338;28;20059;-70
2021/04/15 10:27:54;;;;;;;63.30;30.63;;;9.10;92.40;;;;;;5119968;28;20012;-71
2021/04/15 10:30:31;;;;;;;309.80;133.57;;;9.30;92.10;;;;;;5117579;28;20024;-70
2021/04/15 10:33:09;;;;;;;64.32;31.92;;;9.20;91.30;;;;;;5119720;28;20469;-69
2021/04/15 10:35:49;;;;;;;223.27;98.47;;;9.20;90.10;;;;;;5120106;28;20035;-73
2021/04/15 10:38:53;;;;;;;248.00;103.03;;;9.40;91.60;;;;;;5118824;28;20085;-70
2021/04/15 10:42:01;;;;;;;61.38;29.35;;;9.60;91.10;;;;;;5120008;28;20496;-71
2021/04/15 10:44:33;;;;;;;167.75;73.63;;;9.90;90.10;;;;;;5120367;28;20063;-70
2021/04/15 10:47:07;;;;;;;95.85;50.05;;;9.80;87.30;;;;;;5118673;28;20020;-70
2021/04/15 10:49:48;;;;;;;;;;;10.00;90.00;;;;;;5121272;28;20028;-73
2021/04/15 10:52:23;;;;;;;86.63;43.70;;;9.70;85.80;;;;;;5116735;28;19904;-73
2021/04/15 10:54:49;;;;;;;33.60;17.98;;;9.20;88.30;;;;;;5119958;28;20338;-71
2021/04/15 10:57:27;;;;;;;97.00;48.08;;;9.30;90.00;;;;;;5120026;28;20065;-70
2021/04/15 10:59:54;;;;;;;52.47;27.08;;;9.00;87.80;;;;;;5120496;28;20016;-72
2021/04/15 11:02:32;;;;;;;125.60;70.50;;;;;;;;;;5120069;28;20030;-72
2021/04/15 11:05:16;;;;;;;95.22;60.08;;;9.60;91.00;;;;;;5121211;28;20381;-73
2021/04/15 11:07:44;;;;;;;25.38;15.35;;;9.60;88.90;;;;;;5118893;28;20016;-72
2021/04/15 11:10:23;;;;;;;55.83;31.13;;;9.90;90.70;;;;;;5118796;28;20119;-70
2021/04/15 11:13:01;;;;;;;99.85;44.25;;;10.00;88.50;;;;;;5117846;28;20054;-73
2021/04/15 11:15:43;;;;;;;144.40;68.72;;;10.00;90.00;;;;;;5120026;28;20056;-73
2021/04/15 11:18:26;;;;;;;110.30;47.45;;;9.90;88.00;;;;;;5114165;28;20077;-69
2021/04/15 11:20:53;;;;;;;54.72;24.15;;;9.80;87.20;;;;;;5116676;28;20004;-72
2021/04/15 11:23:19;;;;;;;91.60;39.67;;;9.60;85.60;;;;;;5118421;28;20043;-70
2021/04/15 11:25:48;;;;;;;73.00;37.85;;;9.60;84.60;;;;;;5119671;28;20481;-70
2021/04/15 11:28:23;;;;;;;48.92;22.75;;;9.60;89.40;;;;;;5119420;28;20137;-71
2021/04/15 11:30:55;;;;;;;67.97;35.17;;;9.60;88.60;;;;;;5118912;28;20032;-73
2021/04/15 11:34:05;;;;;;;78.85;38.78;;;9.60;87.20;;;;;;5118441;28;20030;-71
2021/04/15 11:36:34;;;;;;;69.55;37.70;;;9.60;84.10;;;;;;5058111;28;20025;-72
2021/04/15 11:39:06;;;;;;;23.90;12.20;;;9.50;85.90;;;;;;5058211;28;20045;-70
2021/04/15 11:41:47;;;;;;;24.73;15.40;;;9.90;90.10;;;;;;5058992;28;20427;-69
2021/04/15 11:44:36;;;;;;;67.20;35.88;;;10.20;88.30;;;;;;5057804;28;20092;-70
2021/04/15 11:47:08;;;;;;;66.82;39.55;;;10.80;97.70;;;;;;5057896;28;20443;-70
2021/04/15 11:49:40;;;;;;;43.05;26.13;;;11.30;82.40;;;;;;5055896;28;20035;-70
2021/04/15 11:52:12;;;;;;;22.25;14.40;;;11.30;80.30;;;;;;5055742;28;20506;-71
2021/04/15 11:54:52;;;;;;;46.75;25.60;;;11.30;77.40;;;;;;5057238;28;20131;-70
2021/04/15 11:57:36;;;;;;;42.30;27.80;;;11.70;80.90;;;;;;5055946;28;20029;-70
2021/04/15 12:00:02;;;;;;;24.08;16.80;;;12.20;78.50;;;;;;5039541;28;20127;-70
2021/04/15 12:02:39;;;;;;;27.20;16.65;;;12.00;77.00;;;;;;5056090;28;20053;-69
2021/04/15 12:05:10;;;;;;;13.88;9.70;;;12.10;77.80;;;;;;5056831;28;20160;-72
2021/04/15 12:07:38;;;;;;;18.15;12.45;;;11.70;75.80;;;;;;5056589;28;20119;-72
2021/04/15 12:10:06;;;;;;;34.75;19.98;;;11.10;73.60;;;;;;5057589;28;20028;-72
2021/04/15 12:12:38;;;;;;;45.83;28.38;;;10.70;75.20;;;;;;5103598;28;20049;-72
2021/04/15 12:15:08;;;;;;;41.22;25.25;;;10.40;79.30;;;;;;5115888;28;20019;-70
2021/04/15 12:17:42;;;;;;;45.33;27.20;;;10.50;83.50;;;;;;5116047;28;20024;-70
2021/04/15 12:20:23;;;;;;;29.67;17.60;;;10.40;83.00;;;;;;5113632;28;20019;-69
2021/04/15 12:22:56;;;;;;;29.27;19.48;;;10.90;82.00;;;;;;5114719;28;20022;-69
2021/04/15 12:25:25;;;;;;;25.02;15.63;;;11.10;80.20;;;;;;5115973;27;20020;-70
2021/04/15 12:28:11;;;;;;;36.40;23.85;;;11.00;78.90;;;;;;5114724;28;20035;-69
2021/04/15 12:30:39;;;;;;;30.35;21.10;;;11.10;82.60;;;;;;5115683;28;20024;-68
2021/04/15 12:33:30;;;;;;;23.10;16.48;;;11.00;78.60;;;;;;5114404;28;20020;-69
2021/04/15 12:35:58;;;;;;;27.63;20.77;;;10.50;76.40;;;;;;5115010;28;20023;-68
2021/04/15 12:38:36;;;;;;;27.85;16.23;;;10.40;81.00;;;;;;5116020;28;20019;-68
2021/04/15 12:41:06;;;;;;;23.23;16.30;;;10.30;82.10;;;;;;5112137;28;20077;-72
2021/04/15 12:43:34;;;;;;;21.60;13.60;;;;;;;;;;5116195;28;20023;-70
2021/04/15 12:46:08;;;;;;;25.17;15.77;;;10.10;99.90;;;;;;5116119;28;20382;-70
2021/04/15 12:48:46;;;;;;;73.15;41.00;;;9.70;99.90;;;;;;5111458;28;20461;-70
2021/04/15 12:51:20;;;;;;;73.57;41.67;;;9.70;99.90;;;;;;5114728;28;20027;-69
2021/04/15 12:53:47;;;;;;;48.63;27.98;;;9.40;92.90;;;;;;5115578;28;20034;-70
2021/04/15 12:56:18;;;;;;;69.63;40.85;;;9.40;93.10;;;;;;5116039;28;20016;-69
2021/04/15 12:58:45;;;;;;;64.18;40.85;;;9.50;92.40;;;;;;5118011;28;20063;-74
2021/04/15 13:01:13;;;;;;;41.15;26.73;;;9.60;92.90;;;;;;5124757;28;20010;-74
2021/04/15 13:03:41;;;;;;;25.20;17.08;;;9.90;91.30;;;;;;5119140;28;20071;-69
2021/04/15 13:06:15;;;;;;;28.98;19.83;;;10.60;91.20;;;;;;5124519;28;20016;-73
2021/04/15 13:08:48;;;;;;;29.65;19.58;;;10.90;92.80;;;;;;5125971;28;20051;-74
2021/04/15 13:11:17;;;;;;;41.47;26.67;;;;;;;;;;5126331;28;20023;-74
2021/04/15 13:14:04;;;;;;;36.95;22.70;;;11.60;97.60;;;;;;5122916;28;20067;-74
2021/04/15 13:16:43;;;;;;;22.17;14.80;;;12.00;80.40;;;;;;5121172;28;20024;-74
2021/04/15 13:19:21;;;;;;;20.20;14.38;;;11.80;76.10;;;;;;5122355;28;20445;-73
2021/04/15 13:22:02;;;;;;;16.25;10.05;;;;;;;;;;5123804;28;20023;-70
2021/04/15 13:24:46;;;;;;;36.60;23.75;;;12.20;74.20;;;;;;5124415;28;20032;-74
2021/04/15 13:27:30;;;;;;;20.20;13.02;;;11.90;72.40;;;;;;5117791;28;20034;-75
2021/04/15 13:30:15;;;;;;;39.13;26.38;;;11.90;80.10;;;;;;5124378;28;20012;-70
2021/04/15 13:32:59;;;;;;;16.13;10.80;;;12.40;76.70;;;;;;5127161;28;20072;-74
2021/04/15 13:35:52;;;;;;;18.48;12.57;;;12.70;70.10;;;;;;5125104;28;20015;-76
2021/04/15 13:41:02;;;;;;;24.85;15.80;;;12.70;67.20;;;;;;5126846;28;20039;-76
2021/04/15 13:43:40;;;;;;;;;;;12.50;61.90;;;;;;5125157;28;20026;-73